createdAt,value
2023-04-18T00:00:30.287Z,50.53
2023-04-18T00:03:17.841Z,50.53
2023-04-18T00:06:05.317Z,50.50
2023-04-18T00:08:52.892Z,50.50
2023-04-18T00:11:40.248Z,50.58
2023-04-18T00:14:27.569Z,50.50
2023-04-18T00:17:14.947Z,50.60
2023-04-18T00:20:02.274Z,50.79
2023-04-18T00:22:49.615Z,50.79
2023-04-18T00:25:36.928Z,50.72
2023-04-18T00:28:24.513Z,50.77
2023-04-18T00:31:11.902Z,50.81
2023-04-18T00:33:59.356Z,51.03
2023-04-18T00:36:46.692Z,51.05
2023-04-18T00:39:34.175Z,51.01
2023-04-18T00:42:21.489Z,51.05
2023-04-18T00:45:08.865Z,50.92
2023-04-18T00:47:56.197Z,51.17
2023-04-18T00:50:43.618Z,51.13
2023-04-18T00:53:30.975Z,51.11
2023-04-18T00:56:18.343Z,51.17
2023-04-18T00:59:05.686Z,51.19
2023-04-18T01:01:53.362Z,51.30
2023-04-18T01:04:40.920Z,51.18
2023-04-18T01:07:28.350Z,51.19
2023-04-18T01:10:15.671Z,51.08
2023-04-18T01:13:03.059Z,51.19
2023-04-18T01:15:50.396Z,51.33
2023-04-18T01:18:37.798Z,51.25
2023-04-18T01:21:25.173Z,51.15
2023-04-18T01:24:12.742Z,51.19
2023-04-18T01:27:00.218Z,51.24
2023-04-18T01:29:47.552Z,51.18
2023-04-18T01:32:34.901Z,51.35
2023-04-18T01:35:22.238Z,51.32
2023-04-18T01:38:09.593Z,51.38
2023-04-18T01:40:56.977Z,51.25
2023-04-18T01:43:44.291Z,51.42
2023-04-18T01:46:31.685Z,51.37
2023-04-18T01:49:19.021Z,51.31
2023-04-18T01:52:06.356Z,51.30
2023-04-18T01:54:53.681Z,51.35
2023-04-18T01:57:41.054Z,51.31
2023-04-18T02:00:28.558Z,51.39
2023-04-18T02:03:15.997Z,51.26
2023-04-18T02:06:03.412Z,51.31
2023-04-18T02:08:50.833Z,51.37
2023-04-18T02:11:38.217Z,51.40
2023-04-18T02:14:25.955Z,51.29
2023-04-18T02:17:13.273Z,51.39
2023-04-18T02:20:00.840Z,51.41
2023-04-18T02:22:48.144Z,51.42
2023-04-18T02:25:35.482Z,51.29
2023-04-18T02:28:22.864Z,51.36
2023-04-18T02:31:10.193Z,51.25
2023-04-18T02:33:57.484Z,51.31
2023-04-18T02:36:44.807Z,51.37
2023-04-18T02:39:32.158Z,51.28
2023-04-18T02:42:19.495Z,51.45
2023-04-18T02:45:06.813Z,51.42
2023-04-18T02:47:56.511Z,51.35
2023-04-18T02:50:44.180Z,51.29
2023-04-18T02:53:31.568Z,51.42
2023-04-18T02:56:18.913Z,51.23
2023-04-18T02:59:06.251Z,51.32
2023-04-18T03:01:53.636Z,51.38
2023-04-18T03:04:41.072Z,51.45
2023-04-18T03:07:28.370Z,51.33
2023-04-18T03:10:15.696Z,51.28
2023-04-18T03:13:03.015Z,51.37
2023-04-18T03:15:50.463Z,51.20
2023-04-18T03:18:37.786Z,51.23
2023-04-18T03:21:25.172Z,51.29
2023-04-18T03:24:12.582Z,51.44
2023-04-18T03:27:00.051Z,51.31
2023-04-18T03:29:47.420Z,51.37
2023-04-18T03:32:34.768Z,51.25
2023-04-18T03:35:22.118Z,51.42
2023-04-18T03:38:09.498Z,51.33
2023-04-18T03:40:56.829Z,51.44
2023-04-18T03:43:44.160Z,51.28
2023-04-18T03:46:31.548Z,51.30
2023-04-18T03:49:18.911Z,51.38
2023-04-18T03:52:06.241Z,51.53
2023-04-18T03:54:53.607Z,51.59
2023-04-18T03:57:41.401Z,51.68
2023-04-18T04:00:28.869Z,51.76
2023-04-18T04:03:16.241Z,51.88
2023-04-18T04:06:03.673Z,51.92
2023-04-18T04:08:51.033Z,51.98
2023-04-18T04:11:38.423Z,52.11
2023-04-18T04:14:25.744Z,52.18
2023-04-18T04:17:13.086Z,52.10
2023-04-18T04:20:00.371Z,51.92
2023-04-18T04:22:47.692Z,52.09
2023-04-18T04:25:35.040Z,52.06
2023-04-18T04:28:22.387Z,51.95
2023-04-18T04:31:09.740Z,52.04
2023-04-18T04:33:57.090Z,52.02
2023-04-18T04:36:44.460Z,52.04
2023-04-18T04:39:31.858Z,51.99
2023-04-18T04:42:19.204Z,51.89
2023-04-18T04:45:06.550Z,52.02
2023-04-18T04:47:53.984Z,52.12
2023-04-18T04:50:41.397Z,52.17
2023-04-18T04:53:28.703Z,52.21
2023-04-18T04:56:16.061Z,52.19
2023-04-18T04:59:03.363Z,52.11
2023-04-18T05:01:50.762Z,52.18
2023-04-18T05:04:38.207Z,52.40
2023-04-18T05:07:25.664Z,52.41
2023-04-18T05:10:13.016Z,52.50
2023-04-18T05:13:00.337Z,52.53
2023-04-18T05:15:47.665Z,52.38
2023-04-18T05:18:35.154Z,52.50
2023-04-18T05:21:22.487Z,52.66
2023-04-18T05:24:09.807Z,52.81
2023-04-18T05:26:57.143Z,52.69
2023-04-18T05:29:44.478Z,52.87
2023-04-18T05:32:31.914Z,53.03
2023-04-18T05:35:19.486Z,52.99
2023-04-18T05:38:06.830Z,53.04
2023-04-18T05:40:56.475Z,53.12
2023-04-18T05:43:46.366Z,53.21
2023-04-18T05:46:41.884Z,53.31
2023-04-18T05:49:29.439Z,53.36
2023-04-18T05:52:16.895Z,53.27
2023-04-18T05:55:04.285Z,53.30
2023-04-18T05:57:51.702Z,53.42
2023-04-18T06:00:39.042Z,53.60
2023-04-18T06:03:26.618Z,53.63
2023-04-18T06:06:14.067Z,53.63
2023-04-18T06:09:01.418Z,53.74
2023-04-18T06:11:48.767Z,53.81
2023-04-18T06:14:36.116Z,54.07
2023-04-18T06:17:23.450Z,54.00
2023-04-18T06:20:10.860Z,54.12
2023-04-18T06:22:58.187Z,54.22
2023-04-18T06:25:45.508Z,54.28
2023-04-18T06:28:32.816Z,54.26
2023-04-18T06:31:20.190Z,54.35
2023-04-18T06:34:07.537Z,54.65
2023-04-18T06:36:59.071Z,54.50
2023-04-18T06:39:46.411Z,54.44
2023-04-18T06:42:33.813Z,54.49
2023-04-18T06:45:21.138Z,54.53
2023-04-18T06:48:08.578Z,54.42
2023-04-18T06:50:55.893Z,54.51
2023-04-18T06:53:43.227Z,54.54
2023-04-18T06:56:30.553Z,54.34
2023-04-18T06:59:17.896Z,54.34
2023-04-18T07:02:05.290Z,54.43
2023-04-18T07:04:52.883Z,54.40
2023-04-18T07:07:40.249Z,54.25
2023-04-18T07:10:27.653Z,54.29
2023-04-18T07:13:15.008Z,54.13
2023-04-18T07:16:02.344Z,54.11
2023-04-18T07:18:49.692Z,54.06
2023-04-18T07:21:37.036Z,54.11
2023-04-18T07:24:24.343Z,54.02
2023-04-18T07:27:11.683Z,53.96
2023-04-18T07:29:58.968Z,53.96
2023-04-18T07:32:46.377Z,53.75
2023-04-18T07:35:33.768Z,53.78
2023-04-18T07:38:21.091Z,53.75
2023-04-18T07:41:08.444Z,53.73
2023-04-18T07:43:55.843Z,53.60
2023-04-18T07:46:43.232Z,53.61
2023-04-18T07:49:30.605Z,53.75
2023-04-18T07:52:17.960Z,53.65
2023-04-18T07:55:05.279Z,53.69
2023-04-18T07:57:53.722Z,53.83
2023-04-18T08:00:41.121Z,53.71
2023-04-18T08:03:28.588Z,53.75
2023-04-18T08:06:16.122Z,53.81
2023-04-18T08:09:03.449Z,53.83
2023-04-18T08:11:50.782Z,53.86
2023-04-18T08:14:38.134Z,53.87
2023-04-18T08:17:25.505Z,53.97
2023-04-18T08:20:12.836Z,54.17
2023-04-18T08:23:06.185Z,54.14
2023-04-18T08:25:55.109Z,54.31
2023-04-18T08:28:44.138Z,54.28
2023-04-18T08:31:33.432Z,54.15
2023-04-18T08:34:20.861Z,54.11
2023-04-18T08:37:08.143Z,54.14
2023-04-18T08:39:55.481Z,54.22
2023-04-18T08:42:42.801Z,54.22
2023-04-18T08:45:30.128Z,53.85
2023-04-18T08:48:17.461Z,54.00
2023-04-18T08:51:04.838Z,53.81
2023-04-18T08:53:52.171Z,53.73
2023-04-18T08:56:39.886Z,53.57
2023-04-18T08:59:27.221Z,53.47
2023-04-18T09:02:14.616Z,53.20
2023-04-18T09:05:02.034Z,52.93
2023-04-18T09:07:49.408Z,52.89
2023-04-18T09:10:36.731Z,52.82
2023-04-18T09:13:24.611Z,52.54
2023-04-18T09:16:11.965Z,52.28
2023-04-18T09:19:00.442Z,51.93
2023-04-18T09:21:47.753Z,52.01
2023-04-18T09:24:35.450Z,51.84
2023-04-18T09:27:22.761Z,51.58
2023-04-18T09:30:10.073Z,51.46
2023-04-18T09:32:57.998Z,51.37
2023-04-18T09:35:45.374Z,51.12
2023-04-18T09:38:32.704Z,51.34
2023-04-18T09:41:21.534Z,50.92
2023-04-18T09:44:10.286Z,50.88
2023-04-18T09:46:59.805Z,50.51
2023-04-18T09:49:47.208Z,50.27
2023-04-18T09:52:34.540Z,50.19
2023-04-18T09:55:21.880Z,50.21
2023-04-18T09:58:09.362Z,50.26
2023-04-18T10:00:56.685Z,50.19
2023-04-18T10:03:44.061Z,50.12
2023-04-18T10:06:31.458Z,49.92
2023-04-18T10:09:18.751Z,49.87
2023-04-18T10:12:06.057Z,50.07
2023-04-18T10:14:53.429Z,50.03
2023-04-18T10:17:46.815Z,50.09
2023-04-18T10:20:46.430Z,49.72
2023-04-18T10:23:33.738Z,49.80
2023-04-18T10:26:21.119Z,49.57
2023-04-18T10:29:08.451Z,49.83
2023-04-18T10:31:55.941Z,49.60
2023-04-18T10:34:43.646Z,49.92
2023-04-18T10:37:30.983Z,49.53
2023-04-18T10:40:18.481Z,47.80
2023-04-18T10:43:05.830Z,47.64
2023-04-18T10:45:53.163Z,48.22
2023-04-18T10:48:40.509Z,48.82
2023-04-18T10:51:27.845Z,48.59
2023-04-18T10:54:15.394Z,47.53
2023-04-18T10:57:02.970Z,47.40
2023-04-18T10:59:50.334Z,47.48
2023-04-18T11:02:37.842Z,47.70
2023-04-18T11:05:25.349Z,48.02
2023-04-18T11:08:12.664Z,47.74
2023-04-18T11:11:00.035Z,47.72
2023-04-18T11:13:48.430Z,47.29
2023-04-18T11:16:36.022Z,46.87
2023-04-18T11:19:23.502Z,46.56
2023-04-18T11:22:10.952Z,46.48
2023-04-18T11:24:58.266Z,46.34
2023-04-18T11:27:46.710Z,46.39
2023-04-18T11:30:34.043Z,46.35
2023-04-18T11:33:21.506Z,46.21
2023-04-18T11:36:09.059Z,46.22
2023-04-18T11:38:56.464Z,46.12
2023-04-18T11:41:43.923Z,46.07
2023-04-18T11:44:31.279Z,46.32
2023-04-18T11:47:18.653Z,45.46
2023-04-18T11:50:07.441Z,45.65
2023-04-18T11:52:54.783Z,45.85
2023-04-18T11:55:42.141Z,44.94
2023-04-18T11:58:29.482Z,44.75
2023-04-18T12:01:16.870Z,45.14
2023-04-18T12:04:04.333Z,45.24
2023-04-18T12:06:51.845Z,45.41
2023-04-18T12:09:39.197Z,45.13
2023-04-18T12:12:26.513Z,45.57
2023-04-18T12:15:13.865Z,45.49
2023-04-18T12:18:01.436Z,45.76
2023-04-18T12:20:48.839Z,44.96
2023-04-18T12:23:36.186Z,44.77
2023-04-18T12:26:23.541Z,44.82
2023-04-18T12:29:11.056Z,45.00
2023-04-18T12:31:58.526Z,43.85
2023-04-18T12:34:46.474Z,44.66
2023-04-18T12:37:34.164Z,44.20
2023-04-18T12:40:21.601Z,45.03
2023-04-18T12:43:09.005Z,44.98
2023-04-18T12:45:56.376Z,44.90
2023-04-18T12:48:43.779Z,43.44
2023-04-18T12:51:31.132Z,44.10
2023-04-18T12:54:18.445Z,43.79
2023-04-18T12:57:05.775Z,43.91
2023-04-18T12:59:53.169Z,44.48
2023-04-18T13:02:41.197Z,44.37
2023-04-18T13:05:31.740Z,44.49
2023-04-18T13:08:20.708Z,44.53
2023-04-18T13:11:08.104Z,44.43
2023-04-18T13:13:55.482Z,43.77
2023-04-18T13:16:43.980Z,43.63
2023-04-18T13:19:31.529Z,43.59
2023-04-18T13:22:18.918Z,43.03
2023-04-18T13:25:06.338Z,43.71
2023-04-18T13:27:53.657Z,42.80
2023-04-18T13:30:41.260Z,43.18
2023-04-18T13:33:28.651Z,42.54
2023-04-18T13:36:16.014Z,42.77
2023-04-18T13:39:03.802Z,42.85
2023-04-18T13:41:51.133Z,42.96
2023-04-18T13:44:38.552Z,42.73
2023-04-18T13:47:25.908Z,42.94
2023-04-18T13:50:13.310Z,42.51
2023-04-18T13:53:00.641Z,42.46
2023-04-18T13:55:48.034Z,42.56
2023-04-18T13:58:35.502Z,43.26
2023-04-18T14:01:22.977Z,42.96
2023-04-18T14:04:10.722Z,42.97
2023-04-18T14:06:58.234Z,43.51
2023-04-18T14:09:45.603Z,43.64
2023-04-18T14:12:32.951Z,43.25
2023-04-18T14:15:20.246Z,43.47
2023-04-18T14:18:07.657Z,43.44
2023-04-18T14:20:57.222Z,44.26
2023-04-18T14:23:44.526Z,43.90
2023-04-18T14:26:31.868Z,43.76
2023-04-18T14:29:19.300Z,43.70
2023-04-18T14:32:06.893Z,43.85
2023-04-18T14:34:54.317Z,44.03
2023-04-18T14:37:41.687Z,44.32
2023-04-18T14:40:30.857Z,43.89
2023-04-18T14:43:20.003Z,44.05
2023-04-18T14:46:07.327Z,44.02
2023-04-18T14:48:54.648Z,43.81
2023-04-18T14:51:41.994Z,43.82
2023-04-18T14:54:31.561Z,43.49
2023-04-18T14:57:19.934Z,43.69
2023-04-18T15:00:07.294Z,43.48
2023-04-18T15:02:54.867Z,43.41
2023-04-18T15:05:42.307Z,43.53
2023-04-18T15:08:31.354Z,43.51
2023-04-18T15:11:19.960Z,43.90
2023-04-18T15:14:07.687Z,43.76
2023-04-18T15:16:55.068Z,43.75
2023-04-18T15:19:42.584Z,43.50
2023-04-18T15:22:29.949Z,43.47
2023-04-18T15:25:17.341Z,43.85
2023-04-18T15:28:04.675Z,43.27
2023-04-18T15:30:52.013Z,43.50
2023-04-18T15:33:39.366Z,43.56
2023-04-18T15:36:26.693Z,43.14
2023-04-18T15:39:14.045Z,43.23
2023-04-18T15:42:01.516Z,43.58
2023-04-18T15:44:48.879Z,43.56
2023-04-18T15:47:36.210Z,43.47
2023-04-18T15:50:23.564Z,43.63
2023-04-18T15:53:10.929Z,43.39
2023-04-18T15:55:58.236Z,43.94
2023-04-18T15:58:45.566Z,43.94
2023-04-18T16:01:33.234Z,43.83
2023-04-18T16:04:20.693Z,43.59
2023-04-18T16:07:08.113Z,43.96
2023-04-18T16:09:55.488Z,44.10
2023-04-18T16:12:42.857Z,43.77
2023-04-18T16:15:30.350Z,43.85
2023-04-18T16:18:17.801Z,43.87
2023-04-18T16:21:05.149Z,43.95
2023-04-18T16:23:52.504Z,44.35
2023-04-18T16:26:39.839Z,44.39
2023-04-18T16:29:27.198Z,44.27
2023-04-18T16:32:14.529Z,44.59
2023-04-18T16:35:01.898Z,44.44
2023-04-18T16:37:49.261Z,44.24
2023-04-18T16:40:36.654Z,44.23
2023-04-18T16:43:23.957Z,44.12
2023-04-18T16:46:11.315Z,44.23
2023-04-18T16:48:58.619Z,43.95
2023-04-18T16:51:45.978Z,43.88
2023-04-18T16:54:33.288Z,44.03
2023-04-18T16:57:20.696Z,43.53
2023-04-18T17:00:08.031Z,43.15
2023-04-18T17:02:55.494Z,43.43
2023-04-18T17:05:42.949Z,43.40
2023-04-18T17:08:30.271Z,42.87
2023-04-18T17:11:17.591Z,42.66
2023-04-18T17:14:04.918Z,42.86
2023-04-18T17:16:53.773Z,42.42
2023-04-18T17:19:41.269Z,42.54
2023-04-18T17:22:28.598Z,42.22
2023-04-18T17:25:15.903Z,42.40
2023-04-18T17:28:03.299Z,42.25
2023-04-18T17:30:50.647Z,41.75
2023-04-18T17:33:38.009Z,41.65
2023-04-18T17:36:25.300Z,41.53
2023-04-18T17:39:12.823Z,41.81
2023-04-18T17:42:00.308Z,41.82
2023-04-18T17:44:47.755Z,41.39
2023-04-18T17:47:35.156Z,41.29
2023-04-18T17:50:22.541Z,41.18
2023-04-18T17:53:09.838Z,41.21
2023-04-18T17:55:57.236Z,41.57
2023-04-18T17:58:44.540Z,41.04
2023-04-18T18:01:31.942Z,41.41
2023-04-18T18:04:19.527Z,40.95
2023-04-18T18:07:07.075Z,41.10
2023-04-18T18:09:54.468Z,41.25
2023-04-18T18:12:41.801Z,41.29
2023-04-18T18:15:29.137Z,41.28
2023-04-18T18:18:16.482Z,40.79
2023-04-18T18:21:03.832Z,40.99
2023-04-18T18:23:51.230Z,41.11
2023-04-18T18:26:38.592Z,41.20
2023-04-18T18:29:25.950Z,40.74
2023-04-18T18:32:13.300Z,41.29
2023-04-18T18:35:00.634Z,40.91
2023-04-18T18:37:47.976Z,41.11
2023-04-18T18:40:35.374Z,40.75
2023-04-18T18:43:22.746Z,41.24
2023-04-18T18:46:10.143Z,41.27
2023-04-18T18:48:57.517Z,40.90
2023-04-18T18:51:44.893Z,40.76
2023-04-18T18:54:32.213Z,41.25
2023-04-18T18:57:19.555Z,40.87
2023-04-18T19:00:06.881Z,41.14
2023-04-18T19:02:54.321Z,40.86
2023-04-18T19:05:41.760Z,41.15
2023-04-18T19:08:29.086Z,40.96
2023-04-18T19:11:16.381Z,41.00
2023-04-18T19:14:03.689Z,40.73
2023-04-18T19:16:51.009Z,40.95
2023-04-18T19:19:38.316Z,41.09
2023-04-18T19:22:25.668Z,41.15
2023-04-18T19:25:13.030Z,40.73
2023-04-18T19:28:00.358Z,40.99
2023-04-18T19:30:47.784Z,40.85
2023-04-18T19:33:35.108Z,40.96
2023-04-18T19:36:22.590Z,40.79
2023-04-18T19:39:09.961Z,40.77
2023-04-18T19:41:57.603Z,41.03
2023-04-18T19:44:44.958Z,41.14
2023-04-18T19:47:32.362Z,41.32
2023-04-18T19:50:19.727Z,40.98
2023-04-18T19:53:07.090Z,41.24
2023-04-18T19:55:54.475Z,41.45
2023-04-18T19:58:41.810Z,41.48
2023-04-18T20:01:29.182Z,41.80
2023-04-18T20:04:16.697Z,41.83
2023-04-18T20:07:04.235Z,42.08
2023-04-18T20:09:51.596Z,42.62
2023-04-18T20:12:38.965Z,42.89
2023-04-18T20:15:26.318Z,42.79
2023-04-18T20:18:13.663Z,43.41
2023-04-18T20:21:01.002Z,43.68
2023-04-18T20:23:48.331Z,43.91
2023-04-18T20:26:35.664Z,44.19
2023-04-18T20:29:22.982Z,44.26
2023-04-18T20:32:10.352Z,44.43
2023-04-18T20:34:57.679Z,44.54
2023-04-18T20:37:45.019Z,44.70
2023-04-18T20:40:32.326Z,44.81
2023-04-18T20:43:19.652Z,45.12
2023-04-18T20:46:07.112Z,45.35
2023-04-18T20:48:54.672Z,45.46
2023-04-18T20:51:42.052Z,45.63
2023-04-18T20:54:29.438Z,45.82
2023-04-18T20:57:16.853Z,46.00
2023-04-18T21:00:04.186Z,46.23
2023-04-18T21:02:51.613Z,46.23
2023-04-18T21:05:39.165Z,46.36
2023-04-18T21:08:26.530Z,46.71
2023-04-18T21:11:13.872Z,46.69
2023-04-18T21:14:01.189Z,46.80
2023-04-18T21:16:48.524Z,47.00
2023-04-18T21:19:35.847Z,46.84
2023-04-18T21:22:23.332Z,47.01
2023-04-18T21:25:10.653Z,47.07
2023-04-18T21:27:58.580Z,47.06
2023-04-18T21:30:45.890Z,47.20
2023-04-18T21:33:33.268Z,47.38
2023-04-18T21:36:20.605Z,47.64
2023-04-18T21:39:07.913Z,47.69
2023-04-18T21:41:55.236Z,47.82
2023-04-18T21:44:42.545Z,47.91
2023-04-18T21:47:29.959Z,48.13
2023-04-18T21:50:17.395Z,48.09
2023-04-18T21:53:04.718Z,48.09
2023-04-18T21:55:52.054Z,48.52
2023-04-18T21:58:39.406Z,48.38
2023-04-18T22:01:26.835Z,48.27
2023-04-18T22:04:14.619Z,48.50
2023-04-18T22:07:02.476Z,48.54
2023-04-18T22:09:49.879Z,48.54
2023-04-18T22:12:37.199Z,48.72
2023-04-18T22:15:24.517Z,48.65
2023-04-18T22:18:11.879Z,48.63
2023-04-18T22:20:59.198Z,48.96
2023-04-18T22:23:46.540Z,49.08
2023-04-18T22:26:33.838Z,49.06
2023-04-18T22:29:21.153Z,48.93
2023-04-18T22:32:08.490Z,49.06
2023-04-18T22:34:55.802Z,49.10
2023-04-18T22:37:43.129Z,49.17
2023-04-18T22:40:30.459Z,49.12
2023-04-18T22:43:17.774Z,49.27
2023-04-18T22:46:05.649Z,49.28
2023-04-18T22:48:53.004Z,49.38
2023-04-18T22:51:40.356Z,49.13
2023-04-18T22:54:27.655Z,49.32
2023-04-18T22:57:14.992Z,49.50
2023-04-18T23:00:02.375Z,49.40
2023-04-18T23:02:49.890Z,49.49
2023-04-18T23:05:37.266Z,49.56
2023-04-18T23:08:24.657Z,49.55
2023-04-18T23:11:12.017Z,49.64
2023-04-18T23:13:59.320Z,49.66
2023-04-18T23:16:46.630Z,49.50
2023-04-18T23:19:34.006Z,49.54
2023-04-18T23:22:21.367Z,49.76
2023-04-18T23:25:08.694Z,49.80
2023-04-18T23:27:56.033Z,49.68
2023-04-18T23:30:43.323Z,49.92
2023-04-18T23:33:30.637Z,49.75
2023-04-18T23:36:17.935Z,49.89
2023-04-18T23:39:05.278Z,49.70
2023-04-18T23:41:52.671Z,49.81
2023-04-18T23:44:39.985Z,49.95
2023-04-18T23:47:27.393Z,49.75
2023-04-18T23:50:14.760Z,49.83
2023-04-18T23:53:02.062Z,49.73
2023-04-18T23:55:50.743Z,49.90
2023-04-18T23:58:38.440Z,49.85
